createdAt,value
2023-05-03T00:01:41.344Z,100.00
2023-05-03T00:04:08.792Z,100.00
2023-05-03T00:06:35.516Z,100.00
2023-05-03T00:09:02.553Z,100.00
2023-05-03T00:11:29.107Z,100.00
2023-05-03T00:13:55.706Z,100.00
2023-05-03T00:16:22.296Z,100.00
2023-05-03T00:18:49.457Z,100.00
2023-05-03T00:21:16.974Z,100.00
2023-05-03T00:23:43.624Z,100.00
2023-05-03T00:26:10.305Z,100.00
2023-05-03T00:28:36.871Z,100.00
2023-05-03T00:31:10.461Z,100.00
2023-05-03T00:33:38.491Z,100.00
2023-05-03T00:36:22.911Z,100.00
2023-05-03T00:38:49.472Z,100.00
2023-05-03T00:41:16.673Z,100.00
2023-05-03T00:43:43.244Z,100.00
2023-05-03T00:46:16.703Z,100.00
2023-05-03T00:48:49.225Z,100.00
2023-05-03T00:51:16.333Z,100.00
2023-05-03T00:53:43.629Z,100.00
2023-05-03T00:56:12.005Z,100.00
2023-05-03T00:58:40.530Z,100.00
2023-05-03T01:01:07.847Z,100.00
2023-05-03T01:03:37.797Z,100.00
2023-05-03T01:06:32.618Z,100.00
2023-05-03T01:09:43.660Z,100.00
2023-05-03T01:12:36.416Z,100.00
2023-05-03T01:15:17.503Z,100.00
2023-05-03T01:17:54.533Z,100.00
2023-05-03T01:20:26.942Z,100.00
2023-05-03T01:23:05.390Z,100.00
2023-05-03T01:25:33.410Z,100.00
2023-05-03T01:27:59.967Z,100.00
2023-05-03T01:30:28.863Z,100.00
2023-05-03T01:33:16.885Z,100.00
2023-05-03T01:36:05.016Z,100.00
2023-05-03T01:38:36.586Z,100.00
2023-05-03T01:41:07.066Z,100.00
2023-05-03T01:43:34.825Z,100.00
2023-05-03T01:46:01.411Z,100.00
2023-05-03T01:48:28.033Z,100.00
2023-05-03T01:50:54.737Z,100.00
2023-05-03T01:53:21.430Z,100.00
2023-05-03T01:55:47.995Z,100.00
2023-05-03T01:58:14.526Z,100.00
2023-05-03T02:00:41.186Z,100.00
2023-05-03T02:03:07.987Z,100.00
2023-05-03T02:05:35.525Z,100.00
2023-05-03T02:08:02.131Z,100.00
2023-05-03T02:10:28.806Z,100.00
2023-05-03T02:12:55.412Z,100.00
2023-05-03T02:15:21.990Z,100.00
2023-05-03T02:17:49.657Z,100.00
2023-05-03T02:20:16.615Z,100.00
2023-05-03T02:22:43.303Z,100.00
2023-05-03T02:25:09.864Z,100.00
2023-05-03T02:27:36.560Z,100.00
2023-05-03T02:30:04.264Z,100.00
2023-05-03T02:32:31.441Z,100.00
2023-05-03T02:34:58.096Z,100.00
2023-05-03T02:37:24.657Z,100.00
2023-05-03T02:39:51.398Z,100.00
2023-05-03T02:42:18.137Z,100.00
2023-05-03T02:44:46.425Z,100.00
2023-05-03T02:47:13.144Z,100.00
2023-05-03T02:49:39.679Z,100.00
2023-05-03T02:52:06.384Z,100.00
2023-05-03T02:54:33.031Z,100.00
2023-05-03T02:56:59.614Z,100.00
2023-05-03T02:59:26.286Z,100.00
2023-05-03T03:01:52.879Z,100.00
2023-05-03T03:04:19.704Z,100.00
2023-05-03T03:06:46.735Z,100.00
2023-05-03T03:09:13.416Z,100.00
2023-05-03T03:11:40.083Z,100.00
2023-05-03T03:14:06.692Z,100.00
2023-05-03T03:16:33.311Z,100.00
2023-05-03T03:18:59.901Z,100.00
2023-05-03T03:21:26.750Z,100.00
2023-05-03T03:23:53.275Z,100.00
2023-05-03T03:26:19.888Z,100.00
2023-05-03T03:28:46.435Z,100.00
2023-05-03T03:31:13.313Z,100.00
2023-05-03T03:33:39.941Z,100.00
2023-05-03T03:36:07.937Z,100.00
2023-05-03T03:38:34.509Z,100.00
2023-05-03T03:41:01.469Z,100.00
2023-05-03T03:43:28.223Z,100.00
2023-05-03T03:45:54.793Z,100.00
2023-05-03T03:48:21.351Z,100.00
2023-05-03T03:50:47.962Z,100.00
2023-05-03T03:53:14.621Z,100.00
2023-05-03T03:55:41.288Z,100.00
2023-05-03T03:58:07.896Z,100.00
2023-05-03T04:00:35.933Z,100.00
2023-05-03T04:03:03.144Z,100.00
2023-05-03T04:05:31.545Z,100.00
2023-05-03T04:07:58.398Z,100.00
2023-05-03T04:10:24.997Z,100.00
2023-05-03T04:12:51.743Z,100.00
2023-05-03T04:15:18.473Z,100.00
2023-05-03T04:17:45.032Z,100.00
2023-05-03T04:20:13.970Z,100.00
2023-05-03T04:22:40.806Z,100.00
2023-05-03T04:25:10.960Z,100.00
2023-05-03T04:27:38.308Z,100.00
2023-05-03T04:30:06.532Z,100.00
2023-05-03T04:32:37.402Z,100.00
2023-05-03T04:35:09.497Z,100.00
2023-05-03T04:37:40.551Z,100.00
2023-05-03T04:40:09.560Z,100.00
2023-05-03T04:42:36.374Z,100.00
2023-05-03T04:45:03.887Z,100.00
2023-05-03T04:47:31.085Z,100.00
2023-05-03T04:49:57.706Z,100.00
2023-05-03T04:52:25.501Z,100.00
2023-05-03T04:54:52.486Z,100.00
2023-05-03T04:57:19.062Z,100.00
2023-05-03T04:59:46.084Z,100.00
2023-05-03T05:02:12.664Z,100.00
2023-05-03T05:04:39.275Z,100.00
2023-05-03T05:07:05.935Z,100.00
2023-05-03T05:09:32.495Z,100.00
2023-05-03T05:11:59.199Z,100.00
2023-05-03T05:14:28.332Z,100.00
2023-05-03T05:16:54.980Z,100.00
2023-05-03T05:19:21.616Z,100.00
2023-05-03T05:21:48.272Z,100.00
2023-05-03T05:24:14.936Z,100.00
2023-05-03T05:26:43.198Z,100.00
2023-05-03T05:29:10.052Z,100.00
2023-05-03T05:31:36.786Z,100.00
2023-05-03T05:34:03.757Z,100.00
2023-05-03T05:36:33.406Z,100.00
2023-05-03T05:39:00.157Z,100.00
2023-05-03T05:41:27.252Z,100.00
2023-05-03T05:43:53.936Z,100.00
2023-05-03T05:46:23.605Z,100.00
2023-05-03T05:48:51.385Z,100.00
2023-05-03T05:51:18.419Z,100.00
2023-05-03T05:53:45.100Z,100.00
2023-05-03T05:56:11.843Z,100.00
2023-05-03T05:58:38.859Z,100.00
2023-05-03T06:01:05.629Z,100.00
2023-05-03T06:03:33.993Z,100.00
2023-05-03T06:06:01.003Z,100.00
2023-05-03T06:08:27.737Z,100.00
2023-05-03T06:10:54.367Z,100.00
2023-05-03T06:13:21.626Z,100.00
2023-05-03T06:15:48.212Z,100.00
2023-05-03T06:18:14.852Z,100.00
2023-05-03T06:20:42.071Z,100.00
2023-05-03T06:23:08.840Z,100.00
2023-05-03T06:25:36.485Z,100.00
2023-05-03T06:28:03.233Z,100.00
2023-05-03T06:30:30.208Z,100.00
2023-05-03T06:32:56.885Z,100.00
2023-05-03T06:35:23.789Z,100.00
2023-05-03T06:37:50.360Z,100.00
2023-05-03T06:40:16.949Z,100.00
2023-05-03T06:42:43.539Z,99.18
2023-05-03T06:45:10.585Z,97.74
2023-05-03T06:47:37.377Z,97.05
2023-05-03T06:50:04.822Z,98.86
2023-05-03T06:52:31.703Z,98.99
2023-05-03T06:54:58.290Z,96.60
2023-05-03T06:57:26.985Z,95.31
2023-05-03T06:59:54.799Z,93.42
2023-05-03T07:02:21.772Z,94.27
2023-05-03T07:04:48.356Z,91.91
2023-05-03T07:07:15.930Z,89.93
2023-05-03T07:09:43.855Z,87.63
2023-05-03T07:12:11.536Z,87.75
2023-05-03T07:14:39.766Z,87.29
2023-05-03T07:17:06.452Z,85.01
2023-05-03T07:19:33.222Z,81.47
2023-05-03T07:21:59.877Z,79.31
2023-05-03T07:24:26.450Z,79.49
2023-05-03T07:26:53.791Z,82.89
2023-05-03T07:29:20.832Z,78.62
2023-05-03T07:31:47.866Z,78.13
2023-05-03T07:34:14.509Z,80.68
2023-05-03T07:36:41.369Z,78.95
2023-05-03T07:39:08.590Z,77.85
2023-05-03T07:41:35.395Z,76.72
2023-05-03T07:44:02.003Z,74.28
2023-05-03T07:46:28.580Z,75.77
2023-05-03T07:48:55.131Z,75.72
2023-05-03T07:51:21.646Z,74.91
2023-05-03T07:53:48.213Z,76.98
2023-05-03T07:56:14.816Z,78.04
2023-05-03T07:58:42.619Z,77.55
2023-05-03T08:01:10.682Z,76.82
2023-05-03T08:03:37.564Z,76.02
2023-05-03T08:06:04.660Z,73.06
2023-05-03T08:08:32.264Z,70.82
2023-05-03T08:10:58.844Z,70.40
2023-05-03T08:13:25.489Z,70.26
2023-05-03T08:15:52.541Z,69.33
2023-05-03T08:18:20.970Z,72.34
2023-05-03T08:20:49.217Z,71.33
2023-05-03T08:23:19.238Z,70.19
2023-05-03T08:25:46.020Z,68.24
2023-05-03T08:28:12.794Z,65.91
2023-05-03T08:30:41.099Z,68.98
2023-05-03T08:33:09.962Z,66.53
2023-05-03T08:35:36.821Z,65.72
2023-05-03T08:38:05.082Z,68.31
2023-05-03T08:40:37.182Z,67.68
2023-05-03T08:43:10.322Z,67.84
2023-05-03T08:45:37.222Z,67.67
2023-05-03T08:48:04.738Z,65.42
2023-05-03T08:50:32.789Z,64.08
2023-05-03T08:53:00.210Z,65.14
2023-05-03T08:55:27.407Z,61.99
2023-05-03T08:57:54.057Z,62.88
2023-05-03T09:00:29.045Z,63.81
2023-05-03T09:02:56.226Z,60.96
2023-05-03T09:05:23.122Z,65.00
2023-05-03T09:08:10.454Z,61.76
2023-05-03T09:10:39.825Z,61.64
2023-05-03T09:13:07.789Z,62.45
2023-05-03T09:15:35.489Z,61.66
2023-05-03T09:18:15.526Z,58.08
2023-05-03T09:20:45.783Z,60.42
2023-05-03T09:23:12.606Z,59.97
2023-05-03T09:25:42.769Z,56.48
2023-05-03T09:28:09.344Z,56.25
2023-05-03T09:30:37.041Z,56.31
2023-05-03T09:33:04.602Z,56.62
2023-05-03T09:35:32.688Z,57.88
2023-05-03T09:38:00.128Z,57.52
2023-05-03T09:40:29.959Z,57.77
2023-05-03T09:43:19.359Z,57.52
2023-05-03T09:45:46.325Z,58.00
2023-05-03T09:48:13.820Z,55.31
2023-05-03T09:50:42.751Z,56.59
2023-05-03T09:53:10.355Z,57.96
2023-05-03T09:55:40.734Z,55.86
2023-05-03T09:58:08.023Z,57.10
2023-05-03T10:00:37.573Z,57.21
2023-05-03T10:03:09.174Z,57.57
2023-05-03T10:05:46.140Z,56.69
2023-05-03T10:08:33.790Z,55.35
2023-05-03T10:11:03.799Z,56.03
2023-05-03T10:13:31.988Z,56.97
2023-05-03T10:16:11.511Z,54.04
2023-05-03T10:18:46.872Z,56.87
2023-05-03T10:21:21.724Z,56.65
2023-05-03T10:24:13.811Z,57.48
2023-05-03T10:26:41.928Z,56.97
2023-05-03T10:29:33.400Z,57.47
2023-05-03T10:32:21.547Z,57.85
2023-05-03T10:34:48.176Z,57.41
2023-05-03T10:37:15.939Z,57.84
2023-05-03T10:39:46.667Z,57.32
2023-05-03T10:42:13.275Z,57.76
2023-05-03T10:44:55.064Z,57.85
2023-05-03T10:47:24.964Z,58.12
2023-05-03T10:50:16.622Z,57.35
2023-05-03T10:52:43.216Z,57.70
2023-05-03T10:55:21.452Z,56.63
2023-05-03T10:57:49.209Z,57.40
2023-05-03T11:00:34.031Z,57.69
2023-05-03T11:03:18.668Z,57.02
2023-05-03T11:05:48.133Z,57.82
2023-05-03T11:08:30.085Z,58.74
2023-05-03T11:11:02.621Z,59.19
2023-05-03T11:13:29.360Z,58.42
2023-05-03T11:15:56.447Z,58.93
2023-05-03T11:18:26.127Z,59.17
2023-05-03T11:20:54.139Z,61.50
2023-05-03T11:23:28.183Z,59.25
2023-05-03T11:25:55.083Z,59.78
2023-05-03T11:28:21.933Z,59.49
2023-05-03T11:30:48.587Z,59.02
2023-05-03T11:33:15.510Z,60.54
2023-05-03T11:35:42.838Z,59.56
2023-05-03T11:38:10.275Z,60.15
2023-05-03T11:40:39.196Z,59.64
2023-05-03T11:43:09.490Z,60.95
2023-05-03T11:45:47.044Z,59.91
2023-05-03T11:48:14.395Z,60.28
2023-05-03T11:51:09.436Z,60.00
2023-05-03T11:53:36.802Z,60.11
2023-05-03T11:56:03.450Z,60.42
2023-05-03T11:58:30.024Z,60.97
2023-05-03T12:00:57.384Z,59.76
2023-05-03T12:03:33.410Z,59.24
2023-05-03T12:06:02.261Z,58.29
2023-05-03T12:08:34.486Z,59.46
2023-05-03T12:11:03.827Z,59.32
2023-05-03T12:13:39.351Z,60.50
2023-05-03T12:18:55.911Z,60.01
2023-05-03T12:23:56.476Z,59.22
2023-05-03T12:26:25.573Z,59.59
2023-05-03T12:28:56.006Z,60.86
2023-05-03T12:31:23.837Z,60.21
2023-05-03T12:34:11.731Z,60.47
2023-05-03T12:36:38.427Z,59.77
2023-05-03T12:39:09.802Z,61.25
2023-05-03T12:44:09.887Z,60.56
2023-05-03T12:46:38.569Z,60.71
2023-05-03T12:49:07.934Z,60.04
2023-05-03T12:51:35.800Z,60.60
2023-05-03T12:54:03.895Z,60.43
2023-05-03T12:56:33.285Z,60.23
2023-05-03T13:04:26.504Z,61.04
2023-05-03T13:06:46.943Z,61.36
2023-05-03T13:09:20.609Z,60.45
2023-05-03T13:11:50.093Z,63.05
2023-05-03T13:14:17.074Z,63.26
2023-05-03T13:16:45.655Z,63.52
2023-05-03T13:19:13.571Z,63.03
2023-05-03T13:21:42.462Z,63.54
2023-05-03T13:24:09.407Z,64.14
2023-05-03T13:26:36.189Z,64.62
2023-05-03T13:29:02.828Z,63.74
2023-05-03T13:31:30.313Z,64.69
2023-05-03T13:33:57.328Z,64.09
2023-05-03T13:36:24.295Z,64.40
2023-05-03T13:38:51.804Z,64.80
2023-05-03T13:41:19.326Z,64.54
2023-05-03T13:43:46.273Z,64.50
2023-05-03T13:46:12.945Z,64.89
2023-05-03T13:48:40.362Z,64.28
2023-05-03T13:51:09.270Z,64.17
2023-05-03T13:53:35.899Z,64.22
2023-05-03T13:56:03.253Z,64.14
2023-05-03T13:58:29.882Z,62.81
2023-05-03T14:00:56.421Z,62.69
2023-05-03T14:03:23.337Z,62.36
2023-05-03T14:05:50.057Z,61.24
2023-05-03T14:08:16.970Z,61.70
2023-05-03T14:10:44.147Z,59.92
2023-05-03T14:13:11.401Z,59.17
2023-05-03T14:15:45.811Z,58.11
2023-05-03T14:18:12.507Z,56.80
2023-05-03T14:20:39.249Z,56.96
2023-05-03T14:23:06.120Z,56.97
2023-05-03T14:25:32.661Z,56.68
2023-05-03T14:27:59.756Z,54.39
2023-05-03T14:30:26.309Z,54.86
2023-05-03T14:32:52.929Z,53.97
2023-05-03T14:35:20.138Z,54.43
2023-05-03T14:37:47.390Z,54.18
2023-05-03T14:40:14.471Z,53.78
2023-05-03T14:42:41.191Z,53.33
2023-05-03T14:45:10.907Z,53.59
2023-05-03T14:47:39.384Z,53.73
2023-05-03T14:50:06.588Z,54.18
2023-05-03T14:52:33.512Z,55.19
2023-05-03T14:55:00.045Z,56.06
2023-05-03T14:57:26.814Z,56.78
2023-05-03T14:59:53.376Z,57.92
2023-05-03T15:02:20.177Z,57.55
2023-05-03T15:04:47.045Z,57.86
2023-05-03T15:07:13.632Z,58.56
2023-05-03T15:09:40.221Z,58.13
2023-05-03T15:12:07.457Z,59.68
2023-05-03T15:14:34.014Z,59.75
2023-05-03T15:17:00.890Z,59.95
2023-05-03T15:19:28.510Z,57.75
2023-05-03T15:21:55.346Z,56.73
2023-05-03T15:24:22.280Z,57.14
2023-05-03T15:26:48.889Z,55.70
2023-05-03T15:29:16.276Z,56.24
2023-05-03T15:31:43.719Z,56.08
2023-05-03T15:34:13.197Z,57.06
2023-05-03T15:36:40.789Z,57.78
2023-05-03T15:39:09.135Z,58.84
2023-05-03T15:41:35.885Z,59.06
2023-05-03T15:44:05.214Z,59.03
2023-05-03T15:46:32.755Z,58.91
2023-05-03T15:48:59.492Z,60.03
2023-05-03T15:51:27.842Z,60.75
2023-05-03T15:53:54.455Z,61.36
2023-05-03T15:56:21.774Z,60.92
2023-05-03T15:58:50.072Z,61.03
2023-05-03T16:01:17.233Z,62.19
2023-05-03T16:03:44.503Z,61.98
2023-05-03T16:06:11.459Z,63.14
2023-05-03T16:08:38.142Z,62.29
2023-05-03T16:11:04.976Z,61.98
2023-05-03T16:13:31.558Z,64.70
2023-05-03T16:15:58.141Z,63.47
2023-05-03T16:18:26.856Z,62.86
2023-05-03T16:20:54.186Z,63.34
2023-05-03T16:23:20.903Z,65.55
2023-05-03T16:25:47.586Z,64.62
2023-05-03T16:28:15.038Z,64.45
2023-05-03T16:30:42.466Z,64.83
2023-05-03T16:33:09.256Z,64.97
2023-05-03T16:35:35.893Z,65.21
2023-05-03T16:38:02.955Z,65.33
2023-05-03T16:40:29.987Z,65.92
2023-05-03T16:42:58.129Z,65.10
2023-05-03T16:45:25.036Z,66.31
2023-05-03T16:47:52.110Z,67.30
2023-05-03T16:50:18.739Z,66.68
2023-05-03T16:52:45.308Z,66.57
2023-05-03T16:55:13.332Z,67.06
2023-05-03T16:57:40.172Z,67.53
2023-05-03T17:00:09.353Z,68.63
2023-05-03T17:02:39.891Z,67.85
2023-05-03T17:05:12.655Z,69.20
2023-05-03T17:07:41.886Z,69.51
2023-05-03T17:10:09.154Z,71.05
2023-05-03T17:12:35.853Z,71.39
2023-05-03T17:15:02.568Z,73.43
2023-05-03T17:17:32.022Z,72.44
2023-05-03T17:19:58.674Z,72.51
2023-05-03T17:22:25.372Z,71.38
2023-05-03T17:24:55.284Z,73.17
2023-05-03T17:27:22.093Z,74.00
2023-05-03T17:29:48.643Z,74.97
2023-05-03T17:32:15.324Z,74.22
2023-05-03T17:34:41.935Z,75.08
2023-05-03T17:37:08.706Z,74.24
2023-05-03T17:39:35.291Z,76.18
2023-05-03T17:42:01.858Z,75.66
2023-05-03T17:44:28.408Z,76.54
2023-05-03T17:46:56.048Z,77.08
2023-05-03T17:49:22.616Z,78.80
2023-05-03T17:51:49.322Z,79.53
2023-05-03T17:54:15.902Z,79.31
2023-05-03T17:56:44.510Z,79.56
2023-05-03T17:59:11.136Z,81.39
2023-05-03T18:01:37.763Z,81.51
2023-05-03T18:04:04.591Z,80.78
2023-05-03T18:06:31.306Z,80.56
2023-05-03T18:08:58.524Z,80.64
2023-05-03T18:11:25.094Z,81.24
2023-05-03T18:13:51.664Z,82.23
2023-05-03T18:16:18.670Z,82.09
2023-05-03T18:18:45.252Z,82.28
2023-05-03T18:21:12.496Z,82.77
2023-05-03T18:23:39.213Z,83.48
2023-05-03T18:26:07.690Z,84.15
2023-05-03T18:28:35.146Z,84.20
2023-05-03T18:31:01.801Z,83.89
2023-05-03T18:33:28.394Z,84.67
2023-05-03T18:35:54.978Z,85.42
2023-05-03T18:38:21.878Z,85.03
2023-05-03T18:40:49.947Z,84.87
2023-05-03T18:43:16.843Z,85.57
2023-05-03T18:45:43.536Z,85.72
2023-05-03T18:48:10.197Z,86.15
2023-05-03T18:50:39.207Z,86.36
2023-05-03T18:53:06.337Z,86.93
2023-05-03T18:55:32.936Z,86.70
2023-05-03T18:57:59.611Z,87.06
2023-05-03T19:00:26.409Z,87.33
2023-05-03T19:02:52.986Z,87.94
2023-05-03T19:05:19.540Z,88.01
2023-05-03T19:07:49.188Z,88.47
2023-05-03T19:10:17.054Z,88.42
2023-05-03T19:12:44.327Z,89.17
2023-05-03T19:15:11.941Z,89.38
2023-05-03T19:17:41.667Z,89.28
2023-05-03T19:20:10.137Z,89.53
2023-05-03T19:22:36.834Z,89.68
2023-05-03T19:25:05.146Z,89.60
2023-05-03T19:27:32.109Z,90.03
2023-05-03T19:29:58.752Z,90.35
2023-05-03T19:32:25.371Z,90.68
2023-05-03T19:34:51.909Z,90.29
2023-05-03T19:37:18.573Z,89.75
2023-05-03T19:39:45.656Z,91.19
2023-05-03T19:42:12.280Z,91.35
2023-05-03T19:44:38.916Z,92.64
2023-05-03T19:47:05.548Z,92.35
2023-05-03T19:49:32.594Z,92.58
2023-05-03T19:51:59.257Z,93.05
2023-05-03T19:54:26.212Z,93.81
2023-05-03T19:56:52.911Z,93.35
2023-05-03T19:59:19.566Z,93.51
2023-05-03T20:01:46.335Z,93.45
2023-05-03T20:04:13.083Z,93.58
2023-05-03T20:06:39.831Z,93.99
2023-05-03T20:09:06.419Z,94.23
2023-05-03T20:11:32.996Z,94.47
2023-05-03T20:13:59.582Z,95.00
2023-05-03T20:16:31.398Z,95.28
2023-05-03T20:18:58.376Z,95.36
2023-05-03T20:21:24.967Z,95.34
2023-05-03T20:23:51.514Z,95.59
2023-05-03T20:26:19.126Z,95.21
2023-05-03T20:28:46.386Z,96.52
2023-05-03T20:31:13.167Z,96.12
2023-05-03T20:33:39.773Z,96.14
2023-05-03T20:36:07.240Z,96.22
2023-05-03T20:38:33.833Z,95.44
2023-05-03T20:41:00.509Z,95.73
2023-05-03T20:43:27.134Z,95.78
2023-05-03T20:45:53.771Z,96.24
2023-05-03T20:48:20.751Z,96.45
2023-05-03T20:50:47.530Z,96.93
2023-05-03T20:53:14.090Z,97.64
2023-05-03T20:55:40.815Z,98.33
2023-05-03T20:58:07.446Z,99.24
2023-05-03T21:00:34.079Z,99.34
2023-05-03T21:03:00.896Z,100.00
2023-05-03T21:05:28.939Z,100.00
2023-05-03T21:07:56.617Z,100.00
2023-05-03T21:10:23.413Z,100.00
2023-05-03T21:12:49.993Z,100.00
2023-05-03T21:15:16.597Z,100.00
2023-05-03T21:17:43.545Z,100.00
2023-05-03T21:20:10.821Z,100.00
2023-05-03T21:22:37.826Z,100.00
2023-05-03T21:25:05.778Z,100.00
2023-05-03T21:27:32.483Z,100.00
2023-05-03T21:29:59.138Z,100.00
2023-05-03T21:32:25.752Z,100.00
2023-05-03T21:34:53.806Z,100.00
2023-05-03T21:37:20.446Z,100.00
2023-05-03T21:39:58.010Z,100.00
2023-05-03T21:42:32.003Z,100.00
2023-05-03T21:44:59.113Z,100.00
2023-05-03T21:47:27.798Z,100.00
2023-05-03T21:49:54.477Z,100.00
2023-05-03T21:52:21.038Z,100.00
2023-05-03T21:54:47.592Z,100.00
2023-05-03T21:57:14.189Z,100.00
2023-05-03T21:59:40.831Z,100.00
2023-05-03T22:02:07.966Z,100.00
2023-05-03T22:04:34.935Z,100.00
2023-05-03T22:07:01.570Z,100.00
2023-05-03T22:09:28.146Z,100.00
2023-05-03T22:11:54.696Z,100.00
2023-05-03T22:14:21.290Z,100.00
2023-05-03T22:16:47.877Z,100.00
2023-05-03T22:19:14.427Z,100.00
2023-05-03T22:21:40.966Z,100.00
2023-05-03T22:24:08.390Z,100.00
2023-05-03T22:26:35.745Z,100.00
2023-05-03T22:29:02.390Z,100.00
2023-05-03T22:31:30.331Z,100.00
2023-05-03T22:33:57.226Z,100.00
2023-05-03T22:36:23.867Z,100.00
2023-05-03T22:38:55.349Z,100.00
2023-05-03T22:41:22.159Z,100.00
2023-05-03T22:43:48.740Z,100.00
2023-05-03T22:46:15.325Z,100.00
2023-05-03T22:48:41.899Z,100.00
2023-05-03T22:51:09.017Z,100.00
2023-05-03T22:53:35.567Z,100.00
2023-05-03T22:56:04.507Z,100.00
2023-05-03T22:58:31.159Z,100.00
2023-05-03T23:00:58.371Z,100.00
2023-05-03T23:03:25.393Z,100.00
2023-05-03T23:05:53.232Z,100.00
2023-05-03T23:08:20.413Z,100.00
2023-05-03T23:10:47.272Z,100.00
2023-05-03T23:13:14.107Z,100.00
2023-05-03T23:15:40.916Z,100.00
2023-05-03T23:18:07.546Z,100.00
2023-05-03T23:20:34.456Z,100.00
2023-05-03T23:23:01.013Z,100.00
2023-05-03T23:25:27.606Z,100.00
2023-05-03T23:27:54.198Z,100.00
2023-05-03T23:30:21.479Z,100.00
2023-05-03T23:32:48.700Z,100.00
2023-05-03T23:35:15.898Z,100.00
2023-05-03T23:37:42.447Z,100.00
2023-05-03T23:40:09.723Z,100.00
2023-05-03T23:42:36.531Z,100.00
2023-05-03T23:45:03.397Z,100.00
2023-05-03T23:47:30.051Z,100.00
2023-05-03T23:49:56.827Z,100.00
2023-05-03T23:52:23.468Z,100.00
2023-05-03T23:54:50.212Z,100.00
2023-05-03T23:57:16.876Z,100.00
2023-05-03T23:59:43.411Z,100.00
